Time;durP1;ratioP1;P1;durP2;ratioP2;P2;SDS_P1;SDS_P2;PMS_P1;PMS_P2;Temp;Humidity;BMP_temperature;BMP_pressure;BME280_temperature;BME280_humidity;BME280_pressure;Samples;Min_cycle;Max_cycle;Signal;HPM_P1;HPM_P2
2022/05/30 00:01:15;;;;;;;5.03;2.70;;;;;;;;;;5086699;28;20085;-73
2022/05/30 00:03:41;;;;;;;5.80;2.23;;;;;;;;;;5090461;28;20031;-74
2022/05/30 00:06:09;;;;;;;3.87;2.00;;;;;;;;;;5094174;28;20031;-73
2022/05/30 00:08:36;;;;;;;4.67;1.97;;;;;;;;;;5094049;28;20028;-73
2022/05/30 00:11:07;;;;;;;3.27;1.90;;;;;;;;;;5093150;28;20016;-73
2022/05/30 00:13:34;;;;;;;3.10;1.83;;;;;;;;;;5073599;28;20030;-73
2022/05/30 00:16:11;;;;;;;3.20;2.23;;;;;;;;;;5071443;28;20099;-73
2022/05/30 00:18:38;;;;;;;4.77;2.20;;;;;;;;;;5068267;28;20025;-73
2022/05/30 00:21:05;;;;;;;4.17;2.03;;;;;;;;;;5068222;28;20036;-73
2022/05/30 00:23:32;;;;;;;4.80;1.83;;;;;;;;;;5073218;28;20027;-73
2022/05/30 00:25:59;;;;;;;3.60;2.23;;;;;;;;;;5089878;28;20104;-73
2022/05/30 00:28:25;;;;;;;4.90;2.60;;;;;;;;;;5093737;28;20404;-72
2022/05/30 00:30:52;;;;;;;4.87;2.73;;;;;;;;;;5093683;28;20024;-73
2022/05/30 00:33:19;;;;;;;6.03;3.10;;;;;;;;;;5093243;28;20031;-73
2022/05/30 00:35:46;;;;;;;5.67;3.10;;;;;;;;;;5093021;28;20028;-73
2022/05/30 00:38:13;;;;;;;5.20;3.20;;;;;;;;;;5091252;28;20024;-73
2022/05/30 00:40:40;;;;;;;5.77;2.73;;;;;;;;;;5088027;28;20024;-73
2022/05/30 00:43:27;;;;;;;4.27;2.90;;;;;;;;;;5087996;28;20020;-72
2022/05/30 00:45:55;;;;;;;5.10;2.90;;;;;;;;;;5087639;28;20040;-73
2022/05/30 00:48:24;;;;;;;4.20;2.40;;;;;;;;;;5089710;28;20085;-73
2022/05/30 00:50:53;;;;;;;4.17;3.00;;;;;;;;;;5093250;28;20089;-73
2022/05/30 00:53:20;;;;;;;4.40;2.93;;;;;;;;;;5093330;28;20031;-73
2022/05/30 00:55:47;;;;;;;5.70;3.00;;;;;;;;;;5093294;28;20048;-73
2022/05/30 00:58:14;;;;;;;6.20;3.10;;;;;;;;;;5093152;28;20073;-73
2022/05/30 01:00:41;;;;;;;4.60;3.00;;;;;;;;;;5089778;28;20540;-73
2022/05/30 01:08:39;;;;;;;3.70;2.80;;;;;;;;;;5087153;28;20547;-73
2022/05/30 01:11:06;;;;;;;5.37;2.80;;;;;;;;;;5090419;28;20028;-73
2022/05/30 01:13:32;;;;;;;4.87;2.60;;;;;;;;;;5092595;28;20028;-72
2022/05/30 01:15:59;;;;;;;5.07;2.60;;;;;;;;;;5092871;28;20020;-72
2022/05/30 01:18:29;;;;;;;7.23;2.87;;;;;;;;;;5092888;28;20012;-72
2022/05/30 01:21:08;;;;;;;5.97;2.70;;;;;;;;;;5092941;28;20054;-72
2022/05/30 01:23:43;;;;;;;5.00;2.67;;;;;;;;;;5087983;28;20042;-73
2022/05/30 01:26:15;;;;;;;3.23;1.80;;;;;;;;;;5087579;28;20024;-73
2022/05/30 01:28:50;;;;;;;3.83;2.03;;;;;;;;;;5087398;28;20036;-72
2022/05/30 01:31:17;;;;;;;3.03;2.17;;;;;;;;;;5087448;28;20078;-73
2022/05/30 01:33:45;;;;;;;2.63;1.43;;;;;;;;;;5090775;28;20035;-73
2022/05/30 01:36:12;;;;;;;2.80;1.80;;;;;;;;;;5092088;28;20085;-73
2022/05/30 01:38:38;;;;;;;3.33;1.53;;;;;;;;;;5092777;28;20048;-72
2022/05/30 01:41:05;;;;;;;2.17;1.23;;;;;;;;;;5092677;28;20077;-73
2022/05/30 01:43:32;;;;;;;3.27;1.40;;;;;;;;;;5092751;28;20020;-73
2022/05/30 01:46:04;;;;;;;2.23;1.40;;;;;;;;;;5088533;28;20035;-72
2022/05/30 01:48:31;;;;;;;2.13;1.30;;;;;;;;;;5086586;28;20070;-73
2022/05/30 01:50:59;;;;;;;2.10;1.37;;;;;;;;;;5067497;28;20033;-73
2022/05/30 01:53:27;;;;;;;2.17;1.40;;;;;;;;;;5067337;28;20135;-73
2022/05/30 01:55:54;;;;;;;5.70;1.60;;;;;;;;;;5070505;28;20066;-73
2022/05/30 01:58:21;;;;;;;1.73;1.03;;;;;;;;;;5072322;28;20540;-73
2022/05/30 02:00:47;;;;;;;3.27;1.10;;;;;;;;;;5090415;28;20036;-73
2022/05/30 02:03:14;;;;;;;1.53;0.90;;;;;;;;;;5092382;28;20494;-73
2022/05/30 02:05:41;;;;;;;3.47;1.10;;;;;;;;;;5092297;28;20460;-73
2022/05/30 02:08:09;;;;;;;2.13;0.67;;;;;;;;;;5088828;28;20054;-73
2022/05/30 02:10:36;;;;;;;1.83;1.10;;;;;;;;;;5086913;28;20024;-73
2022/05/30 02:13:05;;;;;;;1.70;0.90;;;;;;;;;;5087185;28;20533;-73
2022/05/30 02:17:00;;;;;;;2.37;0.90;;;;;;;;;;5087300;28;20020;-73
2022/05/30 02:18:18;;;;;;;3.67;1.00;;;;;;;;;;5090444;28;20044;-73
2022/05/30 02:20:46;;;;;;;1.20;0.73;;;;;;;;;;5092545;28;20023;-73
2022/05/30 02:23:13;;;;;;;1.63;0.73;;;;;;;;;;5091935;28;20093;-73
2022/05/30 02:25:40;;;;;;;3.63;0.90;;;;;;;;;;5092408;28;20407;-72
2022/05/30 02:28:07;;;;;;;1.37;1.10;;;;;;;;;;5091809;28;20028;-73
2022/05/30 02:30:33;;;;;;;1.47;0.90;;;;;;;;;;5088446;28;20025;-73
2022/05/30 02:38:30;;;;;;;1.95;1.00;;;;;;;;;;5091007;28;20055;-73
2022/05/30 02:40:57;;;;;;;1.37;0.90;;;;;;;;;;5094822;28;20477;-74
2022/05/30 02:43:23;;;;;;;1.37;0.67;;;;;;;;;;5096099;28;20023;-73
2022/05/30 02:45:50;;;;;;;0.83;0.60;;;;;;;;;;5096065;28;20056;-73
2022/05/30 02:48:17;;;;;;;0.97;0.77;;;;;;;;;;5095287;28;20028;-72
2022/05/30 02:50:45;;;;;;;1.50;0.80;;;;;;;;;;5096039;28;20467;-73
2022/05/30 02:53:12;;;;;;;1.97;1.10;;;;;;;;;;5091180;28;20456;-73
2022/05/30 02:55:39;;;;;;;1.90;1.00;;;;;;;;;;5090786;28;20028;-73
2022/05/30 02:58:06;;;;;;;1.40;0.73;;;;;;;;;;5090483;28;20028;-73
2022/05/30 03:00:32;;;;;;;2.83;1.00;;;;;;;;;;5090205;28;20028;-72
2022/05/30 03:02:59;;;;;;;1.80;0.93;;;;;;;;;;5093941;28;20453;-73
2022/05/30 03:05:26;;;;;;;1.73;1.00;;;;;;;;;;5095346;28;20055;-73
2022/05/30 03:07:52;;;;;;;1.50;0.90;;;;;;;;;;5095467;28;20108;-72
2022/05/30 03:10:19;;;;;;;1.20;0.80;;;;;;;;;;5095397;28;20521;-73
2022/05/30 03:12:46;;;;;;;1.50;0.87;;;;;;;;;;5095019;28;20115;-73
2022/05/30 03:15:13;;;;;;;1.27;0.80;;;;;;;;;;5090790;28;20031;-73
2022/05/30 03:17:39;;;;;;;1.30;0.67;;;;;;;;;;5090227;28;20114;-73
2022/05/30 03:20:06;;;;;;;0.77;0.53;;;;;;;;;;5090329;28;20024;-73
2022/05/30 03:22:33;;;;;;;1.83;0.63;;;;;;;;;;5090002;28;20047;-73
2022/05/30 03:25:00;;;;;;;0.83;0.57;;;;;;;;;;5092750;28;20424;-72
2022/05/30 03:27:26;;;;;;;1.60;0.70;;;;;;;;;;5095149;28;20378;-73
2022/05/30 03:29:53;;;;;;;1.47;0.70;;;;;;;;;;5094984;28;20028;-73
2022/05/30 03:32:20;;;;;;;2.27;0.80;;;;;;;;;;5094533;28;20071;-73
2022/05/30 03:34:46;;;;;;;1.00;0.43;;;;;;;;;;5094952;28;20032;-72
2022/05/30 03:37:13;;;;;;;2.00;0.87;;;;;;;;;;5091604;28;20062;-73
2022/05/30 03:39:40;;;;;;;1.83;0.60;;;;;;;;;;5089874;28;20028;-72
2022/05/30 03:42:13;;;;;;;2.30;0.50;;;;;;;;;;5089528;28;20063;-73
2022/05/30 03:44:40;;;;;;;0.97;0.57;;;;;;;;;;5088654;28;20077;-73
2022/05/30 03:47:07;;;;;;;1.03;0.50;;;;;;;;;;5092089;28;20020;-73
2022/05/30 03:49:34;;;;;;;0.70;0.20;;;;;;;;;;5094738;28;20372;-73
2022/05/30 03:52:00;;;;;;;0.37;0.30;;;;;;;;;;5094808;28;20411;-72
2022/05/30 03:54:27;;;;;;;0.60;0.40;;;;;;;;;;5094242;28;20026;-73
2022/05/30 03:56:54;;;;;;;0.70;0.40;;;;;;;;;;5094180;28;20020;-73
2022/05/30 03:59:21;;;;;;;1.00;0.50;;;;;;;;;;5091514;28;20540;-73
2022/05/30 04:01:48;;;;;;;1.10;0.43;;;;;;;;;;5088687;28;20060;-74
2022/05/30 04:04:14;;;;;;;1.23;0.30;;;;;;;;;;5089489;28;20056;-73
2022/05/30 04:06:41;;;;;;;0.93;0.13;;;;;;;;;;5089056;28;20077;-73
2022/05/30 04:09:08;;;;;;;1.60;0.40;;;;;;;;;;5091824;28;20107;-73
2022/05/30 04:11:35;;;;;;;0.20;0.13;;;;;;;;;;5094478;28;20054;-73
2022/05/30 04:14:02;;;;;;;0.40;0.20;;;;;;;;;;5094203;28;20031;-73
2022/05/30 04:16:29;;;;;;;0.40;0.30;;;;;;;;;;5094442;28;20448;-72
2022/05/30 04:18:55;;;;;;;0.60;0.30;;;;;;;;;;5093466;28;20028;-73
2022/05/30 04:21:22;;;;;;;0.30;0.20;;;;;;;;;;5091607;28;20050;-73
2022/05/30 04:23:49;;;;;;;0.73;0.30;;;;;;;;;;5088959;28;20055;-72
2022/05/30 04:26:17;;;;;;;0.10;0.10;;;;;;;;;;5089027;28;20106;-72
2022/05/30 04:28:44;;;;;;;0.40;0.30;;;;;;;;;;5088669;28;20031;-73
2022/05/30 04:31:12;;;;;;;0.40;0.30;;;;;;;;;;5090294;28;20025;-72
2022/05/30 04:33:39;;;;;;;0.50;0.20;;;;;;;;;;5093815;28;20028;-73
2022/05/30 04:36:09;;;;;;;4.03;0.40;;;;;;;;;;5093958;28;20035;-72
2022/05/30 04:38:36;;;;;;;0.50;0.20;;;;;;;;;;5093768;28;20013;-72
2022/05/30 04:41:02;;;;;;;0.53;0.30;;;;;;;;;;5093500;28;20035;-72
2022/05/30 04:43:29;;;;;;;0.20;0.20;;;;;;;;;;5091183;28;20077;-72
2022/05/30 04:46:08;;;;;;;0.83;0.40;;;;;;;;;;5088773;28;20394;-72
2022/05/30 04:48:35;;;;;;;0.50;0.30;;;;;;;;;;5088569;28;20031;-73
2022/05/30 04:51:01;;;;;;;0.60;0.30;;;;;;;;;;5088123;28;20093;-73
2022/05/30 04:53:28;;;;;;;0.40;0.20;;;;;;;;;;5090355;28;20020;-73
2022/05/30 04:55:55;;;;;;;0.53;0.30;;;;;;;;;;5093344;28;20071;-72
2022/05/30 04:58:21;;;;;;;0.40;0.30;;;;;;;;;;5093499;28;20028;-72
2022/05/30 05:00:48;;;;;;;0.30;0.23;;;;;;;;;;5093407;28;20046;-72
2022/05/30 05:03:15;;;;;;;0.20;0.20;;;;;;;;;;5092243;28;20032;-73
2022/05/30 05:05:41;;;;;;;1.17;0.23;;;;;;;;;;5091145;28;20081;-72
2022/05/30 05:08:20;;;;;;;0.40;0.30;;;;;;;;;;5088302;28;20107;-73
2022/05/30 05:10:47;;;;;;;0.20;0.10;;;;;;;;;;5088250;28;20094;-72
2022/05/30 05:13:13;;;;;;;0.57;0.30;;;;;;;;;;5088051;28;20103;-72
2022/05/30 05:15:40;;;;;;;0.33;0.30;;;;;;;;;;5089678;28;20032;-72
2022/05/30 05:18:07;;;;;;;5.43;0.27;;;;;;;;;;5092868;28;20529;-73
2022/05/30 05:20:41;;;;;;;0.47;0.20;;;;;;;;;;5093190;28;20032;-72
2022/05/30 05:23:08;;;;;;;0.25;0.25;;;;;;;;;;5092974;28;20020;-73
2022/05/30 05:25:38;;;;;;;0.57;0.23;;;;;;;;;;5093188;28;20028;-72
2022/05/30 05:28:06;;;;;;;0.40;0.20;;;;;;;;;;5090119;28;20109;-72
2022/05/30 05:30:33;;;;;;;1.37;0.50;;;;;;;;;;5087462;28;20036;-72
2022/05/30 05:33:00;;;;;;;0.50;0.30;;;;;;;;;;5087801;28;20493;-72
2022/05/30 05:35:26;;;;;;;0.73;0.20;;;;;;;;;;5087425;28;20031;-72
2022/05/30 05:37:54;;;;;;;1.03;0.40;;;;;;;;;;5089127;28;20036;-72
2022/05/30 05:40:20;;;;;;;0.40;0.30;;;;;;;;;;5092836;28;20526;-72
2022/05/30 05:42:47;;;;;;;1.83;0.40;;;;;;;;;;5092804;28;20048;-72
2022/05/30 05:45:14;;;;;;;0.20;0.20;;;;;;;;;;5092304;28;20032;-72
2022/05/30 05:47:40;;;;;;;1.07;0.97;;;;;;;;;;5092283;28;20031;-73
2022/05/30 05:50:07;;;;;;;0.20;0.20;;;;;;;;;;5090435;28;20074;-72
2022/05/30 05:52:34;;;;;;;0.30;0.20;;;;;;;;;;5087782;28;20023;-72
2022/05/30 05:55:01;;;;;;;0.77;0.47;;;;;;;;;;5087091;28;20039;-72
2022/05/30 05:57:27;;;;;;;0.60;0.40;;;;;;;;;;5087729;28;20024;-73
2022/05/30 05:59:54;;;;;;;1.17;0.70;;;;;;;;;;5088688;28;20024;-72
2022/05/30 06:02:22;;;;;;;1.13;0.60;;;;;;;;;;5092210;28;20040;-72
2022/05/30 06:04:52;;;;;;;1.30;0.60;;;;;;;;;;5092517;28;20059;-72
2022/05/30 06:07:18;;;;;;;1.20;0.60;;;;;;;;;;5092270;28;20024;-72
2022/05/30 06:09:45;;;;;;;0.37;0.20;;;;;;;;;;5095651;28;20111;-72
2022/05/30 06:12:12;;;;;;;0.33;0.27;;;;;;;;;;5094870;28;20096;-72
2022/05/30 06:14:38;;;;;;;2.57;0.60;;;;;;;;;;5091449;28;20024;-73
2022/05/30 06:17:05;;;;;;;1.13;0.40;;;;;;;;;;5091329;28;20494;-72
2022/05/30 06:19:32;;;;;;;0.77;0.50;;;;;;;;;;5091303;28;20028;-73
2022/05/30 06:21:59;;;;;;;3.87;0.70;;;;;;;;;;5092382;28;20028;-72
2022/05/30 06:24:25;;;;;;;1.03;0.60;;;;;;;;;;5096540;28;20370;-72
2022/05/30 06:26:52;;;;;;;1.33;0.57;;;;;;;;;;5096398;28;20379;-72
2022/05/30 06:29:19;;;;;;;2.33;0.60;;;;;;;;;;5095773;28;20032;-72
2022/05/30 06:31:45;;;;;;;1.33;0.70;;;;;;;;;;5095860;28;20028;-72
2022/05/30 06:34:12;;;;;;;1.23;0.67;;;;;;;;;;5094246;28;20161;-73
2022/05/30 06:36:40;;;;;;;1.50;0.60;;;;;;;;;;5091178;28;20036;-72
2022/05/30 06:39:07;;;;;;;1.07;0.70;;;;;;;;;;5091051;28;20024;-72
2022/05/30 06:41:34;;;;;;;2.63;0.90;;;;;;;;;;5090784;28;20020;-72
2022/05/30 06:44:03;;;;;;;1.37;0.83;;;;;;;;;;5091362;28;20387;-72
2022/05/30 06:46:29;;;;;;;2.10;1.10;;;;;;;;;;5095555;28;20028;-72
2022/05/30 06:48:56;;;;;;;1.30;0.70;;;;;;;;;;5095857;28;20064;-72
2022/05/30 06:51:24;;;;;;;2.37;1.10;;;;;;;;;;5095567;28;20051;-73
2022/05/30 06:53:51;;;;;;;3.10;0.60;;;;;;;;;;5095575;28;20510;-73
2022/05/30 06:56:19;;;;;;;2.53;1.00;;;;;;;;;;5094890;28;20048;-73
2022/05/30 06:58:47;;;;;;;2.23;0.90;;;;;;;;;;5090681;28;20023;-73
2022/05/30 07:01:14;;;;;;;1.43;0.77;;;;;;;;;;5090788;28;20077;-73
2022/05/30 07:03:44;;;;;;;0.90;0.70;;;;;;;;;;5090327;28;20054;-73
2022/05/30 07:06:12;;;;;;;1.50;0.80;;;;;;;;;;5090066;28;20024;-73
2022/05/30 07:08:39;;;;;;;1.57;0.70;;;;;;;;;;5095739;28;20049;-73
2022/05/30 07:11:06;;;;;;;7.40;0.80;;;;;;;;;;5095549;28;20020;-73
2022/05/30 07:13:33;;;;;;;2.07;0.90;;;;;;;;;;5095644;28;20087;-73
2022/05/30 07:16:01;;;;;;;1.43;0.80;;;;;;;;;;5095411;28;20016;-73
2022/05/30 07:18:28;;;;;;;2.23;1.10;;;;;;;;;;5094229;28;20024;-73
2022/05/30 07:21:03;;;;;;;1.37;0.70;;;;;;;;;;5089222;28;20028;-73
2022/05/30 07:23:31;;;;;;;1.67;0.73;;;;;;;;;;5090376;28;20132;-74
2022/05/30 07:25:58;;;;;;;3.73;0.80;;;;;;;;;;5090078;28;20099;-73
2022/05/30 07:28:28;;;;;;;1.93;0.70;;;;;;;;;;5090358;28;20020;-74
2022/05/30 07:30:56;;;;;;;1.63;0.80;;;;;;;;;;5094722;28;20023;-74
2022/05/30 07:33:23;;;;;;;1.30;0.80;;;;;;;;;;5094702;28;20089;-74
2022/05/30 07:35:49;;;;;;;2.00;0.80;;;;;;;;;;5094916;28;20065;-74
2022/05/30 07:38:16;;;;;;;3.60;1.10;;;;;;;;;;5094881;28;20039;-74
2022/05/30 07:40:43;;;;;;;2.67;0.83;;;;;;;;;;5094259;28;20023;-74
2022/05/30 07:43:10;;;;;;;1.67;0.83;;;;;;;;;;5089526;28;20020;-74
2022/05/30 07:45:37;;;;;;;2.73;0.73;;;;;;;;;;5089941;28;20502;-74
2022/05/30 07:48:04;;;;;;;1.27;0.50;;;;;;;;;;5089734;28;20475;-74
2022/05/30 07:50:31;;;;;;;3.40;0.53;;;;;;;;;;5089367;28;20032;-74
2022/05/30 07:52:58;;;;;;;1.10;0.60;;;;;;;;;;5094822;28;20027;-74
2022/05/30 07:55:25;;;;;;;0.73;0.50;;;;;;;;;;5094152;28;20032;-74
2022/05/30 07:57:51;;;;;;;1.37;0.60;;;;;;;;;;5094642;28;20475;-73
2022/05/30 08:00:19;;;;;;;1.77;0.67;;;;;;;;;;5094698;28;20054;-74
2022/05/30 08:02:46;;;;;;;0.60;0.30;;;;;;;;;;5094081;28;20028;-74
2022/05/30 08:05:13;;;;;;;0.87;0.50;;;;;;;;;;5088756;28;20027;-74
2022/05/30 08:07:42;;;;;;;0.60;0.37;;;;;;;;;;5089555;28;20115;-74
2022/05/30 08:10:09;;;;;;;1.37;0.50;;;;;;;;;;5089433;28;20063;-74
2022/05/30 08:12:36;;;;;;;0.93;0.40;;;;;;;;;;5089055;28;20028;-74
2022/05/30 08:15:03;;;;;;;0.90;0.60;;;;;;;;;;5093824;28;20023;-74
2022/05/30 08:17:29;;;;;;;0.60;0.47;;;;;;;;;;5094390;28;20366;-73
2022/05/30 08:19:59;;;;;;;0.90;0.50;;;;;;;;;;5093790;28;20031;-74
2022/05/30 08:22:26;;;;;;;0.93;0.60;;;;;;;;;;5094170;28;20024;-74
2022/05/30 08:24:52;;;;;;;1.10;0.60;;;;;;;;;;5093976;28;20467;-74
2022/05/30 08:27:20;;;;;;;0.40;0.30;;;;;;;;;;5088897;28;20073;-74
2022/05/30 08:29:46;;;;;;;2.23;0.50;;;;;;;;;;5088852;28;20131;-74
2022/05/30 08:32:14;;;;;;;0.70;0.30;;;;;;;;;;5088584;28;20027;-74
2022/05/30 08:34:42;;;;;;;0.77;0.37;;;;;;;;;;5088321;28;20032;-74
2022/05/30 08:37:09;;;;;;;0.20;0.20;;;;;;;;;;5093219;28;20051;-74
2022/05/30 08:42:23;;;;;;;0.30;0.22;;;;;;;;;;5094142;28;20102;-74
2022/05/30 08:44:50;;;;;;;0.27;0.23;;;;;;;;;;5093602;28;20103;-74
2022/05/30 08:47:37;;;;;;;0.40;0.30;;;;;;;;;;5092727;28;20024;-74
2022/05/30 08:50:27;;;;;;;0.70;0.40;;;;;;;;;;5088383;28;20043;-74
2022/05/30 08:52:53;;;;;;;0.57;0.30;;;;;;;;;;5075519;28;20040;-74
2022/05/30 08:55:28;;;;;;;0.67;0.40;;;;;;;;;;5088435;28;20022;-74
2022/05/30 08:58:11;;;;;;;0.55;0.40;;;;;;;;;;5089246;28;20020;-74
2022/05/30 09:00:41;;;;;;;2.13;0.40;;;;;;;;;;5093633;28;20020;-74
2022/05/30 09:03:17;;;;;;;0.77;0.20;;;;;;;;;;5093071;28;20040;-74
2022/05/30 09:05:50;;;;;;;0.37;0.20;;;;;;;;;;5093129;28;20020;-75
2022/05/30 09:08:35;;;;;;;0.37;0.13;;;;;;;;;;5092922;28;20016;-74
2022/05/30 09:11:08;;;;;;;0.38;0.20;;;;;;;;;;5090034;28;20478;-74
2022/05/30 09:13:45;;;;;;;2.57;0.40;;;;;;;;;;5087563;28;20478;-75
2022/05/30 09:16:17;;;;;;;0.70;0.40;;;;;;;;;;5088260;28;20031;-74
2022/05/30 09:18:46;;;;;;;1.00;0.30;;;;;;;;;;5088112;28;20351;-74
2022/05/30 09:21:14;;;;;;;0.40;0.20;;;;;;;;;;5091000;28;20032;-74
2022/05/30 09:23:41;;;;;;;0.40;0.10;;;;;;;;;;5093198;28;20467;-74
2022/05/30 09:26:11;;;;;;;0.90;0.30;;;;;;;;;;5092869;28;20028;-74
2022/05/30 09:28:41;;;;;;;0.57;0.37;;;;;;;;;;5092979;28;20020;-74
2022/05/30 09:31:17;;;;;;;1.33;0.33;;;;;;;;;;5092883;28;20471;-74
2022/05/30 09:33:45;;;;;;;1.37;0.30;;;;;;;;;;5088055;28;20467;-74
2022/05/30 09:36:47;;;;;;;0.10;0.10;;;;;;;;;;5087681;28;20514;-74
2022/05/30 09:39:17;;;;;;;2.77;0.27;;;;;;;;;;5005261;28;20034;-74
2022/05/30 09:41:44;;;;;;;0.40;0.20;;;;;;;;;;5073348;28;20036;-74
2022/05/30 09:44:25;;;;;;;0.20;0.20;;;;;;;;;;5091461;28;20024;-74
2022/05/30 09:46:53;;;;;;;0.83;0.30;;;;;;;;;;5092562;28;20471;-74
2022/05/30 09:49:21;;;;;;;0.10;0.10;;;;;;;;;;5092467;28;20059;-74
2022/05/30 09:51:49;;;;;;;1.20;0.33;;;;;;;;;;5092560;28;20050;-75
2022/05/30 09:54:28;;;;;;;0.83;0.40;;;;;;;;;;5091506;28;20024;-75
2022/05/30 09:57:05;;;;;;;0.87;0.30;;;;;;;;;;5087174;28;20036;-74
2022/05/30 09:59:35;;;;;;;1.07;0.50;;;;;;;;;;5087613;28;20030;-74
2022/05/30 10:02:03;;;;;;;3.23;0.70;;;;;;;;;;5087499;28;20103;-74
2022/05/30 10:04:38;;;;;;;1.43;1.00;;;;;;;;;;5088476;28;20032;-74
2022/05/30 10:07:07;;;;;;;3.57;1.73;;;;;;;;;;5092479;28;20020;-74
2022/05/30 10:09:34;;;;;;;3.50;1.73;;;;;;;;;;5091979;28;20032;-74
2022/05/30 10:12:02;;;;;;;4.50;1.47;;;;;;;;;;5092196;28;20020;-74
2022/05/30 10:14:30;;;;;;;3.90;1.50;;;;;;;;;;5092455;28;20048;-74
2022/05/30 10:16:59;;;;;;;1.60;1.00;;;;;;;;;;5090385;28;20024;-75
2022/05/30 10:19:30;;;;;;;1.83;1.13;;;;;;;;;;5087199;28;20371;-75
2022/05/30 10:28:19;;;;;;;3.27;1.20;;;;;;;;;;5091201;28;20036;-74
2022/05/30 10:31:12;;;;;;;1.93;0.97;;;;;;;;;;5091937;28;20053;-75
2022/05/30 10:33:41;;;;;;;2.40;1.10;;;;;;;;;;5053684;28;20047;-75
2022/05/30 10:36:11;;;;;;;3.83;1.00;;;;;;;;;;5091873;28;20479;-75
2022/05/30 10:38:56;;;;;;;1.17;0.87;;;;;;;;;;5091365;28;20375;-76
2022/05/30 10:41:34;;;;;;;5.07;1.20;;;;;;;;;;5087036;28;20020;-75
2022/05/30 10:44:06;;;;;;;1.60;0.97;;;;;;;;;;5086932;28;20028;-75
2022/05/30 10:46:43;;;;;;;2.30;1.27;;;;;;;;;;5086587;28;20063;-74
2022/05/30 10:49:17;;;;;;;1.47;1.00;;;;;;;;;;5088558;28;20028;-74
2022/05/30 10:52:01;;;;;;;2.13;1.00;;;;;;;;;;5092101;28;20429;-74
2022/05/30 10:54:27;;;;;;;1.70;0.60;;;;;;;;;;5093016;28;20023;-74
2022/05/30 10:56:57;;;;;;;1.83;0.90;;;;;;;;;;5095600;28;20082;-74
2022/05/30 10:59:35;;;;;;;1.63;0.80;;;;;;;;;;5095123;28;20449;-73
2022/05/30 11:02:02;;;;;;;4.17;1.00;;;;;;;;;;5092357;28;20027;-75
2022/05/30 11:04:29;;;;;;;2.13;0.80;;;;;;;;;;5090130;28;20100;-74
2022/05/30 11:06:57;;;;;;;4.23;1.17;;;;;;;;;;5090599;28;20024;-74
2022/05/30 11:09:43;;;;;;;1.40;0.87;;;;;;;;;;5090085;28;20024;-75
2022/05/30 11:12:16;;;;;;;1.90;0.87;;;;;;;;;;5093199;28;20559;-75
2022/05/30 11:14:51;;;;;;;3.20;1.00;;;;;;;;;;5095698;28;20024;-75
2022/05/30 11:17:27;;;;;;;3.50;1.38;;;;;;;;;;5095138;28;20084;-75
2022/05/30 11:20:03;;;;;;;1.80;1.00;;;;;;;;;;5095322;28;20032;-75
2022/05/30 11:22:29;;;;;;;4.20;0.90;;;;;;;;;;5095457;28;20020;-75
2022/05/30 11:24:56;;;;;;;3.67;1.10;;;;;;;;;;5090215;28;20067;-75
2022/05/30 11:27:22;;;;;;;2.50;1.10;;;;;;;;;;5090320;28;20028;-75
2022/05/30 11:29:55;;;;;;;1.60;0.83;;;;;;;;;;5089649;28;20169;-75
2022/05/30 11:32:45;;;;;;;3.43;0.90;;;;;;;;;;5090016;28;20103;-75
2022/05/30 11:35:30;;;;;;;2.67;1.50;;;;;;;;;;5047911;28;20036;-75
2022/05/30 11:37:57;;;;;;;;;;;;;;;;;;5095536;28;20017;-75
2022/05/30 11:40:35;;;;;;;3.57;1.47;;;;;;;;;;5095082;28;19908;-75
2022/05/30 11:43:20;;;;;;;3.10;1.20;;;;;;;;;;5094931;28;20065;-74
2022/05/30 11:45:51;;;;;;;4.00;0.95;;;;;;;;;;5093037;28;20035;-75
2022/05/30 11:48:36;;;;;;;6.20;0.60;;;;;;;;;;5089633;28;20098;-75
2022/05/30 11:51:10;;;;;;;0.55;0.30;;;;;;;;;;5089837;28;20071;-75
2022/05/30 11:53:39;;;;;;;0.50;0.40;;;;;;;;;;5089279;28;20032;-75
2022/05/30 11:56:06;;;;;;;0.73;0.50;;;;;;;;;;5091894;28;20024;-75
2022/05/30 11:58:52;;;;;;;1.60;0.57;;;;;;;;;;5094555;28;20386;-75
2022/05/30 12:01:21;;;;;;;0.60;0.40;;;;;;;;;;5094006;28;20031;-75
2022/05/30 12:03:54;;;;;;;0.40;0.30;;;;;;;;;;5094103;28;20034;-75
2022/05/30 12:06:32;;;;;;;3.63;0.80;;;;;;;;;;5093518;28;20036;-74
2022/05/30 12:09:34;;;;;;;1.97;0.97;;;;;;;;;;5090474;28;20089;-74
2022/05/30 12:12:06;;;;;;;3.20;1.17;;;;;;;;;;4986785;28;20510;-75
2022/05/30 12:14:45;;;;;;;2.10;1.27;;;;;;;;;;5073101;28;20039;-74
2022/05/30 12:23:47;;;;;;;2.07;1.20;;;;;;;;;;5089186;28;20024;-74
2022/05/30 12:23:50;;;;;;;3.13;1.60;;;;;;;;;;5093767;28;20035;-74
2022/05/30 12:26:18;;;;;;;3.00;1.50;;;;;;;;;;5094008;28;20028;-74
2022/05/30 12:28:45;;;;;;;2.97;1.83;;;;;;;;;;5093591;28;20382;-75
2022/05/30 12:31:11;;;;;;;2.00;1.23;;;;;;;;;;5089930;28;20131;-74
2022/05/30 12:33:49;;;;;;;3.23;1.40;;;;;;;;;;5088848;28;20031;-74
2022/05/30 12:36:16;;;;;;;3.20;1.20;;;;;;;;;;5088662;28;20031;-74
2022/05/30 12:38:52;;;;;;;3.43;1.50;;;;;;;;;;5088488;28;20129;-74
2022/05/30 12:41:26;;;;;;;6.23;1.30;;;;;;;;;;5092277;28;20085;-74
2022/05/30 12:43:53;;;;;;;4.95;1.55;;;;;;;;;;5093721;28;20036;-74
2022/05/30 12:46:21;;;;;;;3.10;1.43;;;;;;;;;;5093741;28;20051;-73
2022/05/30 12:48:52;;;;;;;7.93;1.47;;;;;;;;;;5093165;28;20028;-73
2022/05/30 12:51:23;;;;;;;2.53;1.30;;;;;;;;;;5093436;28;20040;-73
2022/05/30 12:53:59;;;;;;;2.00;1.30;;;;;;;;;;5088346;28;20032;-73
2022/05/30 12:56:38;;;;;;;2.83;1.60;;;;;;;;;;5088521;28;20024;-73
2022/05/30 12:59:05;;;;;;;2.80;1.57;;;;;;;;;;5088371;28;20418;-73
2022/05/30 13:01:51;;;;;;;1.63;0.90;;;;;;;;;;5087990;28;20035;-73
2022/05/30 13:04:29;;;;;;;1.33;0.93;;;;;;;;;;5093282;28;20027;-73
2022/05/30 13:06:56;;;;;;;3.23;1.40;;;;;;;;;;5093312;28;20027;-73
2022/05/30 13:09:34;;;;;;;1.97;1.20;;;;;;;;;;5092705;28;20053;-73
2022/05/30 13:12:20;;;;;;;2.70;0.97;;;;;;;;;;5092889;28;20082;-73
2022/05/30 13:14:49;;;;;;;;;;;;;;;;;;5091544;28;20462;-73
2022/05/30 13:17:23;;;;;;;2.43;0.90;;;;;;;;;;5088040;28;20288;-73
2022/05/30 13:19:54;;;;;;;5.68;1.05;;;;;;;;;;5087288;28;20024;-74
2022/05/30 13:22:30;;;;;;;1.77;0.87;;;;;;;;;;5088033;28;20576;-73
2022/05/30 13:24:56;;;;;;;2.87;0.90;;;;;;;;;;5090481;28;20344;-73
2022/05/30 13:27:23;;;;;;;1.47;0.63;;;;;;;;;;5093023;28;20081;-73
2022/05/30 13:29:50;;;;;;;2.23;0.53;;;;;;;;;;5092570;28;20047;-72
2022/05/30 13:32:19;;;;;;;2.00;1.00;;;;;;;;;;5092574;28;20024;-75
2022/05/30 13:34:48;;;;;;;3.73;0.80;;;;;;;;;;5092806;28;20035;-73
2022/05/30 13:37:20;;;;;;;2.03;0.93;;;;;;;;;;5090237;28;20094;-73
2022/05/30 13:39:46;;;;;;;3.10;1.77;;;;;;;;;;5087536;28;20024;-73
2022/05/30 13:42:13;;;;;;;2.70;1.77;;;;;;;;;;5087677;28;20047;-73
2022/05/30 13:44:40;;;;;;;3.27;1.57;;;;;;;;;;5087508;28;20075;-73
2022/05/30 13:47:10;;;;;;;5.50;1.97;;;;;;;;;;5089341;28;20031;-73
2022/05/30 13:49:40;;;;;;;3.07;1.60;;;;;;;;;;5092484;28;20028;-73
2022/05/30 13:52:11;;;;;;;3.03;1.40;;;;;;;;;;5092591;28;20023;-72
2022/05/30 13:54:41;;;;;;;3.83;2.00;;;;;;;;;;5092414;28;20121;-72
2022/05/30 13:57:09;;;;;;;3.97;1.40;;;;;;;;;;5092500;28;20024;-73
2022/05/30 13:59:47;;;;;;;4.47;1.60;;;;;;;;;;5088862;28;20085;-73
2022/05/30 14:02:19;;;;;;;3.80;1.57;;;;;;;;;;5086750;28;20020;-73
2022/05/30 14:04:47;;;;;;;4.00;1.50;;;;;;;;;;5087016;28;20486;-72
2022/05/30 14:07:26;;;;;;;2.13;0.87;;;;;;;;;;5087235;28;20119;-73
2022/05/30 14:09:56;;;;;;;2.50;1.10;;;;;;;;;;5089616;28;20363;-73
2022/05/30 14:12:27;;;;;;;1.30;0.77;;;;;;;;;;5092311;28;20663;-73
2022/05/30 14:15:06;;;;;;;1.67;0.93;;;;;;;;;;5092087;28;20647;-73
2022/05/30 14:17:33;;;;;;;4.33;1.30;;;;;;;;;;5092345;28;20050;-73
2022/05/30 14:20:09;;;;;;;2.37;0.90;;;;;;;;;;5091851;28;20095;-73
2022/05/30 14:22:36;;;;;;;1.03;0.60;;;;;;;;;;5087475;28;20044;-73
2022/05/30 14:25:04;;;;;;;2.63;0.93;;;;;;;;;;5086742;28;20043;-73
2022/05/30 14:27:36;;;;;;;2.87;1.00;;;;;;;;;;5086834;28;20107;-73
2022/05/30 14:30:07;;;;;;;2.63;1.30;;;;;;;;;;5088781;28;20039;-73
2022/05/30 14:32:36;;;;;;;3.13;1.00;;;;;;;;;;5094971;28;20016;-73
2022/05/30 14:35:02;;;;;;;3.87;1.40;;;;;;;;;;5096209;28;20066;-73
2022/05/30 14:37:31;;;;;;;2.60;1.20;;;;;;;;;;5095681;28;20031;-73
2022/05/30 14:40:03;;;;;;;3.07;1.50;;;;;;;;;;5096253;28;20089;-73
2022/05/30 14:42:38;;;;;;;3.30;1.20;;;;;;;;;;5096235;28;20016;-73
2022/05/30 14:45:12;;;;;;;3.53;1.47;;;;;;;;;;5090669;28;20028;-74
2022/05/30 14:47:42;;;;;;;4.50;1.53;;;;;;;;;;5090357;28;20036;-72
2022/05/30 14:50:11;;;;;;;4.80;1.40;;;;;;;;;;5090597;28;20028;-73
2022/05/30 14:52:59;;;;;;;2.60;1.20;;;;;;;;;;5090521;28;20089;-73
2022/05/30 14:55:32;;;;;;;3.30;1.20;;;;;;;;;;5095983;28;20024;-73
2022/05/30 14:58:05;;;;;;;2.13;1.13;;;;;;;;;;5095911;28;20072;-73
2022/05/30 15:00:37;;;;;;;3.43;1.70;;;;;;;;;;5095100;28;20028;-73
2022/05/30 15:05:49;;;;;;;3.28;1.70;;;;;;;;;;5093427;28;20098;-74
2022/05/30 15:08:16;;;;;;;2.70;1.27;;;;;;;;;;5090036;28;20043;-73
2022/05/30 15:10:43;;;;;;;2.50;1.23;;;;;;;;;;5089653;28;20115;-73
2022/05/30 15:13:09;;;;;;;5.47;1.60;;;;;;;;;;5090142;28;20493;-73
2022/05/30 15:15:36;;;;;;;1.70;1.00;;;;;;;;;;5091166;28;20020;-74
2022/05/30 15:18:03;;;;;;;3.07;1.60;;;;;;;;;;5095206;28;20024;-73
2022/05/30 15:20:30;;;;;;;3.87;1.10;;;;;;;;;;5095106;28;20032;-73
2022/05/30 15:22:58;;;;;;;3.97;1.20;;;;;;;;;;5095116;28;20107;-73
2022/05/30 15:25:29;;;;;;;2.13;1.13;;;;;;;;;;5095358;28;20059;-73